Time;durP1;ratioP1;P1;durP2;ratioP2;P2;SDS_P1;SDS_P2;PMS_P1;PMS_P2;Temp;Humidity;BMP_temperature;BMP_pressure;BME280_temperature;BME280_humidity;BME280_pressure;Samples;Min_cycle;Max_cycle;Signal;HPM_P1;HPM_P2
2021/11/20 00:00:18;;;;;;;19.60;8.95;;;11.40;99.90;;;;;;5110185;28;20501;-42
2021/11/20 00:02:44;;;;;;;21.00;10.43;;;11.40;99.90;;;;;;5112128;28;20388;-43
2021/11/20 00:05:14;;;;;;;13.90;8.10;;;11.30;99.90;;;;;;5111854;28;20119;-43
2021/11/20 00:07:40;;;;;;;18.60;10.00;;;11.30;99.90;;;;;;5110473;28;20023;-43
2021/11/20 00:10:09;;;;;;;21.33;10.23;;;11.30;99.90;;;;;;5100086;28;20081;-42
2021/11/20 00:12:36;;;;;;;18.80;11.20;;;11.30;99.90;;;;;;5112118;28;20080;-42
2021/11/20 00:15:05;;;;;;;22.15;11.43;;;11.40;99.90;;;;;;5111676;28;20493;-42
2021/11/20 00:17:32;;;;;;;28.95;11.95;;;11.30;99.90;;;;;;5111645;28;20039;-43
2021/11/20 00:19:57;;;;;;;21.88;12.05;;;11.30;99.90;;;;;;5108883;28;20046;-44
2021/11/20 00:22:28;;;;;;;22.10;11.57;;;11.40;99.90;;;;;;5111554;28;20028;-43
2021/11/20 00:24:58;;;;;;;31.10;12.38;;;11.40;99.90;;;;;;5111197;28;20031;-42
2021/11/20 00:27:32;;;;;;;20.25;10.55;;;11.40;99.90;;;;;;5111372;28;20024;-42
2021/11/20 00:30:02;;;;;;;21.73;11.93;;;11.40;99.90;;;;;;5110997;28;20019;-42
2021/11/20 00:32:32;;;;;;;17.47;11.33;;;11.30;99.90;;;;;;5111618;28;20035;-43
2021/11/20 00:35:00;;;;;;;23.50;12.82;;;11.40;99.90;;;;;;5111474;28;20024;-42
2021/11/20 00:37:26;;;;;;;22.58;12.10;;;11.40;99.90;;;;;;5111293;28;20115;-42
2021/11/20 00:39:52;;;;;;;20.15;12.80;;;11.40;99.90;;;;;;5098280;28;20332;-43
2021/11/20 00:42:18;;;;;;;22.75;12.48;;;11.40;99.90;;;;;;5110509;28;20495;-42
2021/11/20 00:44:45;;;;;;;20.20;12.13;;;11.40;99.90;;;;;;5111060;28;20028;-43
2021/11/20 00:47:11;;;;;;;24.75;13.07;;;11.40;99.90;;;;;;5111023;28;20376;-42
2021/11/20 00:49:38;;;;;;;27.88;11.95;;;11.40;99.90;;;;;;5110608;28;20024;-42
2021/11/20 00:52:04;;;;;;;22.60;11.27;;;11.40;99.90;;;;;;5110901;28;20030;-43
2021/11/20 00:54:30;;;;;;;21.55;12.05;;;11.40;99.90;;;;;;5110570;28;20416;-42
2021/11/20 00:56:56;;;;;;;19.50;10.70;;;11.40;99.90;;;;;;5109557;28;20038;-45
2021/11/20 00:59:22;;;;;;;24.73;11.82;;;11.40;99.90;;;;;;5110386;28;20099;-42
2021/11/20 01:01:52;;;;;;;23.88;11.32;;;11.40;99.90;;;;;;5111025;28;20167;-42
2021/11/20 01:04:19;;;;;;;16.15;10.65;;;11.40;99.90;;;;;;5110870;28;20023;-42
2021/11/20 01:06:46;;;;;;;19.95;10.82;;;11.40;99.90;;;;;;5110483;28;20049;-43
2021/11/20 01:09:15;;;;;;;23.30;11.23;;;11.40;99.90;;;;;;5102670;28;20019;-43
2021/11/20 01:11:45;;;;;;;17.38;9.38;;;11.30;99.90;;;;;;5104619;28;20098;-43
2021/11/20 01:14:13;;;;;;;19.15;10.32;;;11.40;99.90;;;;;;5110763;28;20484;-42
2021/11/20 01:16:41;;;;;;;18.00;9.10;;;11.30;99.90;;;;;;5101794;28;20032;-47
2021/11/20 01:19:06;;;;;;;25.85;9.82;;;11.30;99.90;;;;;;5093037;28;20033;-47
2021/11/20 01:21:34;;;;;;;16.30;9.18;;;11.40;99.90;;;;;;5102007;28;20325;-47
2021/11/20 01:24:03;;;;;;;23.10;9.35;;;11.30;99.90;;;;;;5110517;28;20031;-47
2021/11/20 01:26:28;;;;;;;24.13;10.13;;;11.30;99.90;;;;;;5110362;28;20455;-47
2021/11/20 01:28:56;;;;;;;16.70;9.30;;;11.30;99.90;;;;;;5109698;28;20047;-47
2021/11/20 01:31:24;;;;;;;20.23;9.80;;;11.30;99.90;;;;;;5109522;28;20016;-46
2021/11/20 01:33:50;;;;;;;17.88;8.68;;;11.30;99.90;;;;;;5110002;28;20066;-46
2021/11/20 01:36:20;;;;;;;21.83;9.73;;;11.40;99.90;;;;;;5109076;28;20080;-46
2021/11/20 01:38:47;;;;;;;17.80;8.65;;;11.30;99.90;;;;;;5110007;28;20488;-48
2021/11/20 01:41:14;;;;;;;17.83;9.30;;;11.30;99.90;;;;;;5109235;28;20035;-46
2021/11/20 01:43:40;;;;;;;27.52;10.40;;;11.30;99.90;;;;;;5110587;28;20024;-47
2021/11/20 01:46:21;;;;;;;18.88;9.13;;;11.20;99.90;;;;;;5110776;28;20344;-47
2021/11/20 01:49:00;;;;;;;21.13;9.02;;;11.30;99.90;;;;;;5108153;28;20031;-48
2021/11/20 01:51:51;;;;;;;19.38;9.32;;;11.30;99.90;;;;;;5090043;28;20024;-48
2021/11/20 01:54:17;;;;;;;16.15;9.00;;;11.30;99.90;;;;;;5079295;28;20092;-46
2021/11/20 01:57:02;;;;;;;19.15;9.63;;;11.20;99.90;;;;;;5089374;28;20211;-46
2021/11/20 01:59:31;;;;;;;16.63;8.65;;;11.30;99.90;;;;;;5088847;28;20035;-47
2021/11/20 02:02:37;;;;;;;20.15;9.75;;;11.20;99.90;;;;;;5089445;28;20084;-47
2021/11/20 02:05:28;;;;;;;21.42;9.88;;;11.20;99.90;;;;;;5088923;28;20020;-47
2021/11/20 02:08:27;;;;;;;23.92;9.65;;;11.20;99.90;;;;;;5089032;28;20425;-47
2021/11/20 02:11:00;;;;;;;20.95;9.50;;;11.20;99.90;;;;;;5096312;28;20060;-48
2021/11/20 02:13:30;;;;;;;19.40;9.60;;;11.20;99.90;;;;;;5089250;28;20240;-46
2021/11/20 02:15:59;;;;;;;21.17;9.13;;;11.20;99.90;;;;;;5089339;28;20024;-47
2021/11/20 02:18:29;;;;;;;19.55;9.35;;;11.20;99.90;;;;;;5088855;28;20061;-48
2021/11/20 02:21:05;;;;;;;20.00;9.38;;;11.20;99.90;;;;;;5088238;28;20517;-46
2021/11/20 02:23:31;;;;;;;16.20;8.55;;;11.20;99.90;;;;;;5089273;28;20032;-47
2021/11/20 02:25:58;;;;;;;24.95;9.98;;;11.30;99.90;;;;;;5089040;28;20508;-46
2021/11/20 02:28:24;;;;;;;22.83;9.68;;;11.20;99.90;;;;;;5088826;28;20421;-46
2021/11/20 02:30:51;;;;;;;22.80;9.70;;;11.10;99.90;;;;;;5088769;28;20059;-46
2021/11/20 02:33:26;;;;;;;19.65;9.77;;;11.20;99.90;;;;;;5088862;28;20102;-46
2021/11/20 02:35:56;;;;;;;26.23;11.13;;;11.10;99.90;;;;;;5088823;28;20043;-46
2021/11/20 02:38:29;;;;;;;22.08;10.48;;;11.20;99.90;;;;;;5091411;28;20023;-48
2021/11/20 02:40:57;;;;;;;28.25;10.68;;;11.20;99.90;;;;;;5100497;28;20145;-46
2021/11/20 02:43:24;;;;;;;20.23;10.80;;;11.20;99.90;;;;;;5100563;28;20392;-47
2021/11/20 02:45:56;;;;;;;20.63;10.50;;;11.10;99.90;;;;;;5091548;28;20490;-46
2021/11/20 02:48:22;;;;;;;21.13;11.05;;;11.10;99.90;;;;;;5102628;28;20420;-47
2021/11/20 02:50:55;;;;;;;19.45;10.90;;;11.00;99.90;;;;;;5088551;28;20136;-45
2021/11/20 02:53:34;;;;;;;22.70;11.35;;;11.10;99.90;;;;;;5088438;28;20020;-46
2021/11/20 02:56:00;;;;;;;22.08;11.18;;;11.10;99.90;;;;;;5088746;28;20078;-47
2021/11/20 02:58:28;;;;;;;22.58;10.35;;;11.10;99.90;;;;;;5088191;28;20028;-47
2021/11/20 03:01:07;;;;;;;21.35;12.02;;;11.10;99.90;;;;;;5088578;28;20452;-46
2021/11/20 03:03:33;;;;;;;22.63;12.27;;;11.10;99.90;;;;;;5088632;28;20032;-48
2021/11/20 03:05:58;;;;;;;22.45;12.20;;;11.10;99.90;;;;;;5088477;28;20524;-47
2021/11/20 03:08:24;;;;;;;21.52;10.95;;;11.00;99.90;;;;;;5086348;28;20017;-46
2021/11/20 03:10:50;;;;;;;18.90;11.35;;;11.00;99.90;;;;;;5096587;28;20028;-47
2021/11/20 03:13:17;;;;;;;24.52;12.27;;;10.90;99.90;;;;;;5107940;28;20558;-46
2021/11/20 03:15:44;;;;;;;21.70;11.18;;;10.90;99.90;;;;;;5109211;28;20020;-48
2021/11/20 03:18:09;;;;;;;23.85;12.80;;;10.90;99.90;;;;;;5109136;28;20034;-48
2021/11/20 03:20:37;;;;;;;19.20;11.85;;;10.90;99.90;;;;;;5108278;28;20403;-47
2021/11/20 03:23:06;;;;;;;20.45;11.32;;;10.90;99.90;;;;;;5108618;28;20027;-46
2021/11/20 03:25:32;;;;;;;30.95;13.95;;;10.90;99.90;;;;;;5108354;28;20019;-46
2021/11/20 03:27:58;;;;;;;23.45;11.82;;;10.90;99.90;;;;;;5108561;28;20035;-46
2021/11/20 03:30:25;;;;;;;28.40;13.70;;;10.90;99.90;;;;;;5106551;28;20585;-46
2021/11/20 03:32:51;;;;;;;20.67;13.18;;;10.90;99.90;;;;;;5108543;28;20114;-48
2021/11/20 03:35:17;;;;;;;30.25;13.50;;;10.80;99.90;;;;;;5107301;28;20024;-46
2021/11/20 03:37:44;;;;;;;22.42;12.75;;;10.80;99.90;;;;;;5107183;28;20024;-47
2021/11/20 03:40:11;;;;;;;27.25;13.63;;;10.80;99.90;;;;;;5098077;28;20421;-46
2021/11/20 03:42:36;;;;;;;25.13;12.73;;;10.80;99.90;;;;;;5101822;28;20111;-46
2021/11/20 03:45:04;;;;;;;31.63;13.65;;;10.80;99.90;;;;;;5108300;28;20570;-47
2021/11/20 03:47:30;;;;;;;24.35;12.88;;;10.80;99.90;;;;;;5108646;28;20058;-46
2021/11/20 03:49:55;;;;;;;34.45;14.18;;;10.80;99.90;;;;;;5108113;28;20051;-46
2021/11/20 03:52:21;;;;;;;23.63;12.52;;;10.80;99.90;;;;;;5108625;28;20019;-48
2021/11/20 03:54:47;;;;;;;27.58;14.27;;;10.80;99.90;;;;;;5109594;28;20385;-47
2021/11/20 03:57:13;;;;;;;29.80;13.55;;;10.80;99.90;;;;;;5112368;28;20032;-46
2021/11/20 03:59:38;;;;;;;27.75;15.02;;;10.80;99.90;;;;;;5111597;28;20039;-49
2021/11/20 04:02:05;;;;;;;26.90;15.50;;;10.80;99.90;;;;;;5112205;28;20023;-47
2021/11/20 04:04:31;;;;;;;27.63;13.25;;;10.80;99.90;;;;;;5112159;27;20156;-47
2021/11/20 04:06:57;;;;;;;24.17;13.45;;;10.80;99.90;;;;;;5112111;28;20028;-47
2021/11/20 04:09:23;;;;;;;31.52;14.95;;;10.80;99.90;;;;;;5103649;28;20166;-47
2021/11/20 04:11:50;;;;;;;26.40;14.35;;;10.90;99.90;;;;;;5102297;28;20024;-46
2021/11/20 04:14:17;;;;;;;29.00;15.25;;;10.80;99.90;;;;;;5110529;28;20412;-47
2021/11/20 04:16:44;;;;;;;22.92;13.65;;;10.80;99.90;;;;;;5112329;28;20350;-47
2021/11/20 04:19:10;;;;;;;28.52;13.05;;;10.80;99.90;;;;;;5110073;28;20104;-46
2021/11/20 04:21:37;;;;;;;30.52;12.98;;;10.80;99.90;;;;;;5111964;28;20133;-46
2021/11/20 04:24:05;;;;;;;21.63;12.23;;;10.90;99.90;;;;;;5111808;28;20047;-48
2021/11/20 04:26:31;;;;;;;20.20;12.18;;;10.90;99.90;;;;;;5111561;28;20023;-47
2021/11/20 04:28:57;;;;;;;19.50;10.93;;;10.90;99.90;;;;;;5110747;28;20099;-49
2021/11/20 04:31:23;;;;;;;24.75;11.55;;;10.90;99.90;;;;;;5111711;28;20028;-46
2021/11/20 04:33:50;;;;;;;20.13;10.98;;;11.00;99.90;;;;;;5111542;28;20020;-45
2021/11/20 04:36:17;;;;;;;21.05;10.27;;;10.90;99.90;;;;;;5111361;28;20019;-47
2021/11/20 04:38:44;;;;;;;23.58;10.77;;;10.90;99.90;;;;;;5105925;28;20028;-47
2021/11/20 04:41:10;;;;;;;17.88;9.85;;;11.00;99.90;;;;;;5100796;28;20477;-46
2021/11/20 04:43:35;;;;;;;23.15;11.13;;;11.00;99.90;;;;;;5111670;28;20027;-47
2021/11/20 04:46:02;;;;;;;21.33;10.77;;;11.00;99.90;;;;;;5111222;28;20069;-47
2021/11/20 04:48:28;;;;;;;21.05;9.48;;;11.00;99.90;;;;;;5105582;28;20465;-48
2021/11/20 04:50:55;;;;;;;16.63;9.98;;;11.00;99.90;;;;;;5094829;28;20028;-46
2021/11/20 04:53:22;;;;;;;16.33;9.65;;;11.00;99.90;;;;;;5110918;28;20043;-47
2021/11/20 04:55:48;;;;;;;17.23;9.18;;;11.00;99.90;;;;;;5110944;28;20024;-47
2021/11/20 04:58:14;;;;;;;18.50;9.20;;;11.00;99.90;;;;;;5110973;28;20028;-46
2021/11/20 05:00:45;;;;;;;16.85;9.15;;;11.00;99.90;;;;;;5109245;28;20540;-46
2021/11/20 05:03:11;;;;;;;23.08;9.95;;;11.00;99.90;;;;;;5111009;28;20028;-47
2021/11/20 05:05:39;;;;;;;21.02;9.85;;;11.00;99.90;;;;;;5109154;28;20026;-47
2021/11/20 05:08:05;;;;;;;16.40;9.25;;;11.00;99.90;;;;;;5110868;28;20029;-46
2021/11/20 05:10:34;;;;;;;23.63;10.50;;;11.10;99.90;;;;;;5098539;27;20687;-49
2021/11/20 05:13:00;;;;;;;20.13;8.95;;;11.00;99.90;;;;;;5106983;28;20447;-47
2021/11/20 05:15:27;;;;;;;15.43;8.93;;;11.00;99.90;;;;;;5089462;28;20055;-49
2021/11/20 05:17:53;;;;;;;16.77;9.15;;;11.10;99.90;;;;;;5090406;28;20145;-47
2021/11/20 05:20:19;;;;;;;23.58;9.25;;;11.00;99.90;;;;;;5089689;28;20514;-47
2021/11/20 05:22:45;;;;;;;19.45;9.88;;;11.10;99.90;;;;;;5089795;28;20020;-46
2021/11/20 05:25:12;;;;;;;17.95;9.02;;;11.10;99.90;;;;;;5089595;28;20031;-47
2021/11/20 05:27:38;;;;;;;13.52;7.80;;;11.10;99.90;;;;;;5089821;28;20017;-46
2021/11/20 05:30:13;;;;;;;20.73;8.90;;;11.10;99.90;;;;;;5089825;28;20051;-47
2021/11/20 05:32:54;;;;;;;15.15;7.80;;;11.10;99.90;;;;;;5090651;28;20031;-46
2021/11/20 05:35:21;;;;;;;17.25;7.85;;;11.10;99.90;;;;;;5089918;28;20020;-47
2021/11/20 05:37:47;;;;;;;16.65;9.60;;;11.10;99.90;;;;;;5089874;28;20060;-47
2021/11/20 05:40:15;;;;;;;19.50;9.10;;;11.10;99.90;;;;;;5096945;28;20108;-47
2021/11/20 05:42:42;;;;;;;15.27;7.93;;;11.20;99.90;;;;;;5104134;28;20078;-47
2021/11/20 05:45:08;;;;;;;16.20;7.82;;;11.20;99.90;;;;;;5110031;28;20107;-47
2021/11/20 05:47:34;;;;;;;21.52;8.10;;;11.20;99.90;;;;;;5108788;28;20034;-46
2021/11/20 05:50:00;;;;;;;10.18;6.90;;;11.20;99.90;;;;;;5109440;28;20540;-48
2021/11/20 05:52:26;;;;;;;15.57;7.65;;;11.20;99.90;;;;;;5109986;28;20023;-47
2021/11/20 05:54:51;;;;;;;15.52;8.60;;;11.10;99.90;;;;;;5110012;28;20103;-47
2021/11/20 05:57:19;;;;;;;16.35;6.88;;;11.10;99.90;;;;;;5109927;28;20508;-46
2021/11/20 05:59:44;;;;;;;15.65;8.57;;;11.10;99.90;;;;;;5109295;28;20079;-47
2021/11/20 06:02:10;;;;;;;12.45;7.85;;;11.10;99.90;;;;;;5110004;28;20055;-47
2021/11/20 06:04:36;;;;;;;15.10;8.63;;;11.10;99.90;;;;;;5108445;28;20390;-46
2021/11/20 06:07:04;;;;;;;19.08;8.75;;;11.20;99.90;;;;;;5109966;28;20254;-47
2021/11/20 06:09:30;;;;;;;14.40;9.65;;;11.10;99.90;;;;;;5098292;28;20423;-47
2021/11/20 06:11:56;;;;;;;18.63;9.15;;;11.20;99.90;;;;;;5099885;28;20111;-47
2021/11/20 06:14:22;;;;;;;18.80;9.32;;;11.20;99.90;;;;;;5109909;28;20053;-48
2021/11/20 06:16:47;;;;;;;17.92;8.73;;;11.20;99.90;;;;;;5109885;27;20024;-47
2021/11/20 06:19:13;;;;;;;14.88;9.90;;;11.20;99.90;;;;;;5108774;28;20074;-47
2021/11/20 06:21:39;;;;;;;22.38;10.18;;;11.20;99.90;;;;;;5109637;28;20028;-47
2021/11/20 06:24:06;;;;;;;17.52;9.38;;;11.20;99.90;;;;;;5109365;28;20102;-48
2021/11/20 06:26:32;;;;;;;21.45;10.13;;;11.20;99.90;;;;;;5109371;28;20028;-47
2021/11/20 06:28:58;;;;;;;17.38;8.95;;;11.20;99.90;;;;;;5109111;28;20023;-46
2021/11/20 06:31:24;;;;;;;15.80;9.43;;;11.20;99.90;;;;;;5109353;28;20042;-47
2021/11/20 06:33:51;;;;;;;15.35;8.05;;;11.20;99.90;;;;;;5109243;28;20055;-47
2021/11/20 06:36:18;;;;;;;17.38;9.18;;;11.20;99.90;;;;;;5109257;28;20027;-47
2021/11/20 06:38:44;;;;;;;17.58;9.05;;;11.20;99.90;;;;;;5106072;28;20429;-48
2021/11/20 06:41:11;;;;;;;27.70;9.23;;;11.10;99.90;;;;;;5098481;28;20036;-47
2021/11/20 06:43:37;;;;;;;15.73;9.18;;;11.10;99.90;;;;;;5107596;28;20024;-47
2021/11/20 06:46:07;;;;;;;18.70;8.23;;;11.10;99.90;;;;;;5108879;28;20500;-46
2021/11/20 06:48:34;;;;;;;15.25;7.68;;;11.10;99.90;;;;;;5108288;28;20039;-47
2021/11/20 06:51:00;;;;;;;18.48;8.05;;;11.20;99.90;;;;;;5108993;28;20026;-47
2021/11/20 06:53:28;;;;;;;12.90;8.85;;;11.20;99.90;;;;;;5108887;28;20028;-49
2021/11/20 06:55:55;;;;;;;18.80;8.52;;;11.20;99.90;;;;;;5093247;28;20034;-47
2021/11/20 06:58:41;;;;;;;18.27;8.60;;;11.20;99.90;;;;;;5089685;28;20028;-47
2021/11/20 07:01:13;;;;;;;14.73;8.32;;;11.20;99.90;;;;;;5104873;28;20023;-47
2021/11/20 07:03:49;;;;;;;14.52;8.20;;;11.20;99.90;;;;;;5094310;28;20485;-47
2021/11/20 07:06:17;;;;;;;16.88;9.00;;;11.20;99.90;;;;;;5098077;28;20084;-48
2021/11/20 07:08:47;;;;;;;13.30;8.40;;;11.20;99.90;;;;;;5093379;28;20477;-47
2021/11/20 07:11:12;;;;;;;15.68;9.27;;;11.20;99.90;;;;;;5098312;28;20016;-47
2021/11/20 07:13:39;;;;;;;22.17;10.57;;;11.20;99.90;;;;;;5098667;28;20085;-47
2021/11/20 07:16:05;;;;;;;20.73;10.63;;;11.20;99.90;;;;;;5097584;28;20438;-48
2021/11/20 07:18:32;;;;;;;18.70;10.80;;;11.30;99.90;;;;;;5098422;28;20473;-47
2021/11/20 07:20:58;;;;;;;19.50;11.43;;;11.30;99.90;;;;;;5100019;28;20050;-49
2021/11/20 07:23:28;;;;;;;18.15;10.77;;;11.20;99.90;;;;;;5099933;28;20521;-47
2021/11/20 07:25:54;;;;;;;23.98;12.38;;;11.30;99.90;;;;;;5096645;28;20400;-47
2021/11/20 07:28:19;;;;;;;28.73;13.27;;;11.30;99.90;;;;;;5101415;28;20027;-49
2021/11/20 07:30:46;;;;;;;23.70;14.55;;;11.30;99.90;;;;;;5102059;28;20511;-49
2021/11/20 07:33:12;;;;;;;18.58;12.30;;;11.30;99.90;;;;;;5092895;28;20428;-50
2021/11/20 07:35:47;;;;;;;19.90;13.27;;;11.30;99.90;;;;;;5092787;28;20032;-47
2021/11/20 07:38:16;;;;;;;24.95;12.95;;;11.30;99.90;;;;;;5090127;28;20029;-47
2021/11/20 07:40:43;;;;;;;21.80;13.65;;;11.30;99.90;;;;;;5096100;28;20036;-49
2021/11/20 07:43:10;;;;;;;26.08;14.75;;;11.30;99.90;;;;;;5094503;28;20031;-47
2021/11/20 07:45:36;;;;;;;26.83;15.68;;;11.30;99.90;;;;;;5110961;28;20448;-46
2021/11/20 07:48:14;;;;;;;22.63;15.23;;;11.20;99.90;;;;;;5111835;28;20099;-47
2021/11/20 07:50:43;;;;;;;21.92;16.38;;;11.30;99.90;;;;;;5094924;28;20031;-47
2021/11/20 07:53:09;;;;;;;27.08;15.82;;;11.30;99.90;;;;;;5090833;28;20378;-48
2021/11/20 07:55:35;;;;;;;26.42;17.02;;;11.30;99.90;;;;;;5091206;28;20032;-49
2021/11/20 07:58:01;;;;;;;25.08;17.13;;;11.30;99.90;;;;;;5095541;28;20063;-47
2021/11/20 08:00:27;;;;;;;26.73;15.90;;;11.20;99.90;;;;;;5094634;28;20020;-47
2021/11/20 08:02:53;;;;;;;26.45;16.20;;;11.20;99.90;;;;;;5092421;28;20036;-51
2021/11/20 08:05:20;;;;;;;28.23;18.13;;;11.20;99.90;;;;;;5091606;28;20115;-49
2021/11/20 08:07:45;;;;;;;31.02;17.10;;;11.20;99.90;;;;;;5091377;28;20445;-48
2021/11/20 08:10:15;;;;;;;28.15;17.50;;;11.30;99.90;;;;;;5095283;28;20054;-49
2021/11/20 08:12:41;;;;;;;28.30;17.30;;;11.30;99.90;;;;;;5105709;28;20503;-49
2021/11/20 08:15:08;;;;;;;35.35;19.42;;;11.30;99.90;;;;;;5112044;28;20024;-48
2021/11/20 08:17:34;;;;;;;28.80;17.10;;;11.30;99.90;;;;;;5110492;28;20031;-49
2021/11/20 08:20:00;;;;;;;25.20;18.17;;;11.40;99.90;;;;;;5092715;28;20432;-49
2021/11/20 08:22:25;;;;;;;28.92;18.88;;;11.40;99.90;;;;;;5088414;28;20050;-48
2021/11/20 08:24:52;;;;;;;40.03;21.77;;;11.40;99.90;;;;;;5089002;28;20090;-48
2021/11/20 08:27:18;;;;;;;35.60;21.25;;;11.30;99.90;;;;;;5087449;28;20090;-50
2021/11/20 08:29:43;;;;;;;31.90;20.92;;;11.30;99.90;;;;;;5084068;28;20265;-50
2021/11/20 08:32:10;;;;;;;34.38;19.80;;;11.30;99.90;;;;;;5090666;28;20038;-50
2021/11/20 08:34:40;;;;;;;33.30;20.98;;;11.30;99.90;;;;;;5089672;28;20020;-48
2021/11/20 08:37:07;;;;;;;32.60;20.73;;;11.30;99.90;;;;;;5087780;28;20020;-50
2021/11/20 08:39:33;;;;;;;38.60;21.23;;;11.30;99.90;;;;;;5093878;28;20063;-48
2021/11/20 08:41:59;;;;;;;31.52;21.13;;;11.30;99.90;;;;;;5093787;28;20129;-48
2021/11/20 08:44:26;;;;;;;36.10;22.38;;;11.30;99.90;;;;;;5089551;28;20024;-49
2021/11/20 08:46:53;;;;;;;36.70;22.88;;;11.40;99.90;;;;;;5090172;28;20111;-50
2021/11/20 08:49:19;;;;;;;39.65;22.70;;;11.40;99.90;;;;;;5089733;28;20028;-51
2021/11/20 08:51:47;;;;;;;39.35;23.88;;;11.50;99.90;;;;;;5089868;28;20024;-50
2021/11/20 08:54:12;;;;;;;41.90;24.00;;;11.50;99.90;;;;;;5089880;28;20020;-50
2021/11/20 08:56:41;;;;;;;33.15;22.65;;;11.50;99.90;;;;;;5090060;28;20027;-48
2021/11/20 08:59:09;;;;;;;38.47;23.73;;;11.50;99.90;;;;;;5088957;28;20024;-49
2021/11/20 09:01:40;;;;;;;37.17;24.50;;;11.50;99.90;;;;;;5089960;28;20281;-50
2021/11/20 09:04:15;;;;;;;36.13;24.77;;;11.50;99.90;;;;;;5089918;28;20036;-51
2021/11/20 09:06:48;;;;;;;38.38;24.98;;;11.50;99.90;;;;;;5089835;28;20020;-50
2021/11/20 09:09:23;;;;;;;38.60;24.15;;;11.50;99.90;;;;;;5089929;28;20016;-51
2021/11/20 09:11:54;;;;;;;35.60;23.25;;;11.50;99.90;;;;;;5101858;28;20477;-51
2021/11/20 09:14:40;;;;;;;44.47;25.65;;;11.50;99.90;;;;;;5108876;28;20520;-49
2021/11/20 09:17:08;;;;;;;39.92;25.00;;;11.50;99.90;;;;;;5110189;28;20481;-49
2021/11/20 09:19:36;;;;;;;34.78;23.48;;;11.40;99.90;;;;;;5109793;28;20493;-50
2021/11/20 09:22:03;;;;;;;38.03;25.48;;;11.40;99.90;;;;;;5109817;28;20207;-50
2021/11/20 09:24:34;;;;;;;35.63;23.67;;;11.50;99.90;;;;;;5109894;28;20024;-49
2021/11/20 09:26:59;;;;;;;43.15;25.20;;;11.40;99.90;;;;;;5109970;28;20024;-48
2021/11/20 09:29:27;;;;;;;36.63;24.33;;;11.40;99.90;;;;;;5109173;28;20500;-48
2021/11/20 09:31:53;;;;;;;42.05;25.23;;;11.50;99.90;;;;;;5109765;28;20382;-48
2021/11/20 09:34:20;;;;;;;38.15;25.70;;;11.50;99.90;;;;;;5109957;28;20020;-48
2021/11/20 09:36:47;;;;;;;37.75;24.83;;;11.50;99.90;;;;;;5109470;28;20281;-50
2021/11/20 09:39:15;;;;;;;36.13;24.20;;;11.50;99.90;;;;;;5107132;28;20024;-49
2021/11/20 09:42:22;;;;;;;38.60;24.85;;;11.50;99.90;;;;;;5101128;28;20131;-48
2021/11/20 09:44:51;;;;;;;40.47;25.30;;;11.50;99.90;;;;;;5109364;28;20035;-48
2021/11/20 09:47:28;;;;;;;36.65;25.45;;;11.50;99.90;;;;;;5108350;28;20095;-48
2021/11/20 09:50:19;;;;;;;34.97;23.80;;;11.50;99.90;;;;;;5108231;28;20048;-48
2021/11/20 09:52:47;;;;;;;35.10;23.45;;;11.50;99.90;;;;;;5108679;28;20023;-51
2021/11/20 09:55:18;;;;;;;38.50;24.52;;;11.50;99.90;;;;;;5109336;28;20500;-50
2021/11/20 09:57:49;;;;;;;39.80;24.80;;;11.50;99.90;;;;;;5108848;28;20028;-50
2021/11/20 10:00:37;;;;;;;37.78;24.02;;;11.40;99.90;;;;;;5107575;28;20036;-50
2021/11/20 10:03:06;;;;;;;35.97;24.58;;;11.50;99.90;;;;;;5109322;28;20019;-50
2021/11/20 10:05:41;;;;;;;33.75;24.50;;;11.40;99.90;;;;;;5089885;28;20039;-50
2021/11/20 10:08:12;;;;;;;33.20;23.42;;;11.50;99.90;;;;;;5088405;28;20024;-49
2021/11/20 10:11:09;;;;;;;33.17;22.77;;;11.50;99.90;;;;;;5094381;28;20016;-48
2021/11/20 10:13:54;;;;;;;33.67;23.33;;;11.50;99.90;;;;;;5068572;28;20027;-49
2021/11/20 10:16:24;;;;;;;36.30;23.50;;;11.50;99.90;;;;;;5087629;28;20047;-48
2021/11/20 10:19:05;;;;;;;36.20;23.35;;;11.60;99.90;;;;;;5103352;28;20046;-49
2021/11/20 10:21:34;;;;;;;32.03;23.33;;;11.60;99.90;;;;;;5108878;28;20049;-48
2021/11/20 10:24:21;;;;;;;34.60;22.63;;;11.60;99.90;;;;;;5105169;28;20019;-48
2021/11/20 10:27:24;;;;;;;30.35;21.98;;;11.60;99.90;;;;;;5108333;28;20055;-49
2021/11/20 10:29:52;;;;;;;29.73;20.70;;;11.60;99.90;;;;;;5100006;28;20016;-49
2021/11/20 10:32:47;;;;;;;30.60;21.67;;;11.60;99.90;;;;;;5088578;28;20458;-51
2021/11/20 10:35:19;;;;;;;24.38;18.50;;;11.70;99.90;;;;;;5088175;28;20168;-51
2021/11/20 10:37:56;;;;;;;23.83;18.33;;;11.70;99.90;;;;;;5088543;28;20020;-51
2021/11/20 10:40:24;;;;;;;28.02;19.33;;;11.70;99.90;;;;;;5087472;28;20497;-48
2021/11/20 10:43:12;;;;;;;27.60;18.90;;;11.70;99.90;;;;;;5088325;28;20067;-48
2021/11/20 10:45:53;;;;;;;27.63;18.33;;;11.70;99.90;;;;;;5087364;28;20027;-49
2021/11/20 10:48:34;;;;;;;29.85;19.38;;;11.70;99.90;;;;;;5099303;28;20437;-49
2021/11/20 10:51:21;;;;;;;26.23;18.48;;;11.60;99.90;;;;;;5108674;28;20051;-50
2021/11/20 10:54:02;;;;;;;24.15;18.75;;;11.60;99.90;;;;;;5108328;28;20453;-48
2021/11/20 10:56:34;;;;;;;28.27;17.73;;;11.60;99.90;;;;;;5107433;28;20106;-51
2021/11/20 10:59:21;;;;;;;26.98;16.90;;;11.60;99.90;;;;;;5106147;28;20031;-51
2021/11/20 11:02:08;;;;;;;27.77;17.83;;;11.60;99.90;;;;;;5087920;28;20031;-52
2021/11/20 11:04:43;;;;;;;25.98;17.80;;;11.50;99.90;;;;;;5089984;28;20027;-52
2021/11/20 11:07:18;;;;;;;22.83;16.45;;;11.60;99.90;;;;;;5091973;28;20115;-51
2021/11/20 11:09:51;;;;;;;22.95;16.95;;;11.60;99.90;;;;;;5089520;28;20021;-52
2021/11/20 11:12:31;;;;;;;24.98;17.15;;;11.60;99.90;;;;;;5102782;28;20070;-49
2021/11/20 11:15:12;;;;;;;25.25;16.67;;;11.60;99.90;;;;;;5110922;28;20020;-49
2021/11/20 11:18:15;;;;;;;22.23;15.60;;;11.60;99.90;;;;;;5087195;28;20490;-51
2021/11/20 11:21:08;;;;;;;24.30;17.67;;;11.60;99.90;;;;;;5094014;28;20016;-49
2021/11/20 11:23:41;;;;;;;24.00;16.75;;;11.60;99.90;;;;;;5091726;28;20039;-50
2021/11/20 11:26:10;;;;;;;22.60;16.23;;;11.60;99.90;;;;;;5091477;28;20031;-51
2021/11/20 11:28:44;;;;;;;28.00;17.33;;;11.60;99.90;;;;;;5089531;28;20136;-48
2021/11/20 11:31:25;;;;;;;23.10;16.08;;;11.60;99.90;;;;;;5092361;28;20105;-48
2021/11/20 11:33:59;;;;;;;24.73;16.80;;;11.60;99.90;;;;;;5111540;28;20026;-49
2021/11/20 11:36:46;;;;;;;25.33;17.33;;;11.60;99.90;;;;;;5111832;28;20028;-50
2021/11/20 11:39:14;;;;;;;28.98;19.00;;;11.60;99.90;;;;;;5096223;28;20099;-49
2021/11/20 11:42:01;;;;;;;20.50;15.77;;;11.60;99.90;;;;;;5091159;28;20023;-50
2021/11/20 11:45:07;;;;;;;26.67;17.20;;;11.60;99.90;;;;;;5071028;28;20052;-48
2021/11/20 11:47:51;;;;;;;21.52;15.70;;;11.60;99.90;;;;;;5070876;28;20103;-51
2021/11/20 11:50:47;;;;;;;20.95;16.20;;;11.60;99.90;;;;;;5089409;28;20107;-48
2021/11/20 11:53:32;;;;;;;22.05;17.27;;;11.70;99.90;;;;;;5070816;28;20123;-48
2021/11/20 11:56:03;;;;;;;23.80;15.25;;;11.70;99.90;;;;;;5069097;28;20024;-50
2021/11/20 11:58:32;;;;;;;20.40;15.95;;;11.70;99.90;;;;;;5070024;28;20460;-48
2021/11/20 12:01:11;;;;;;;25.40;16.08;;;11.80;99.90;;;;;;5071482;28;20025;-48
2021/11/20 12:03:41;;;;;;;22.02;15.40;;;11.80;99.90;;;;;;5070769;28;20067;-49
2021/11/20 12:06:43;;;;;;;;;;;11.90;99.90;;;;;;5070968;28;20116;-49
2021/11/20 12:09:17;;;;;;;;;;;11.90;99.90;;;;;;5027109;28;19913;-48
2021/11/20 12:11:44;;;;;;;21.77;15.02;;;11.90;99.90;;;;;;5086998;28;20278;-48
2021/11/20 12:14:38;;;;;;;22.73;16.67;;;11.90;99.90;;;;;;5109745;28;20028;-48
2021/11/20 12:17:33;;;;;;;20.63;14.52;;;11.90;99.90;;;;;;5109741;28;20050;-48
2021/11/20 12:20:13;;;;;;;21.52;14.60;;;11.90;99.90;;;;;;5109471;28;20481;-49
2021/11/20 12:22:56;;;;;;;21.05;14.70;;;11.90;99.90;;;;;;5105388;28;20149;-49
2021/11/20 12:25:30;;;;;;;23.17;14.85;;;11.90;99.90;;;;;;5097890;28;20069;-48
2021/11/20 12:28:02;;;;;;;18.63;14.25;;;11.90;99.90;;;;;;5090650;28;20371;-49
2021/11/20 12:30:50;;;;;;;15.30;12.68;;;11.90;99.90;;;;;;5090131;28;20024;-51
2021/11/20 12:33:32;;;;;;;18.85;13.90;;;11.90;99.90;;;;;;5088848;28;20110;-48
2021/11/20 12:36:01;;;;;;;18.75;13.10;;;11.90;99.90;;;;;;5089397;28;20443;-48
2021/11/20 12:38:45;;;;;;;19.42;13.20;;;12.00;99.90;;;;;;5088692;28;20064;-49
2021/11/20 12:41:13;;;;;;;21.55;13.43;;;11.90;99.90;;;;;;5090339;28;20032;-50
2021/11/20 12:43:54;;;;;;;19.27;13.68;;;11.80;99.90;;;;;;5089356;28;20091;-48
2021/11/20 12:46:19;;;;;;;;;;;11.90;99.90;;;;;;5089460;28;20524;-48
2021/11/20 12:49:14;;;;;;;19.88;13.20;;;11.90;99.90;;;;;;5089215;28;19904;-48